KLBB/LBB METAR and TAF weather

Enter ICAO airport designator
Station Type Date Time Source
KLBB METAR 2019/05/27 08:53 UTC NOAA

KLBB 270853Z 17009KT 10SM CLR 19/17 A2986 RMK AO2 SLP065 T01940172 58013 $


Station Type Date Time Source
KLBB Decoded METAR 2019/05/27 08:53 UTC NOAA

LUBBOCK INTERNATIONAL AIRPORT , TX, United States (KLBB) 33-40N 101-49W 992M
May 27, 2019 - 04:53 AM EDT / 2019.05.27 0853 UTC
Wind: from the S (170 degrees) at 10 MPH (9 KT):0
Visibility: 10 mile(s):0
Sky conditions: clear
Temperature: 66.9 F (19.4 C)
Dew Point: 63.0 F (17.2 C)
Relative Humidity: 87%
Pressure (altimeter): 29.86 in. Hg (1011 hPa)
Pressure tendency: 0.04 inches (1.3 hPa) lower than three hours ago
ob: KLBB 270853Z 17009KT 10SM CLR 19/17 A2986 RMK AO2 SLP065 T01940172 58013
cycle: 9

Station Type Date Time Source
KLBB TAF 2019/05/27 06:33 UTC NOAA

TAF KLBB 270530Z 2706/2806 17014KT P6SM SKC
FM271000 18011KT 5SM BR BKN004 OVC015
FM271500 21015G25KT P6SM FEW100
FM280200 17015KT P6SM SCT100

Example: see airport list